sensor_id;sensor_type;location;lat;lon;timestamp;P1;durP1;ratioP1;P2;durP2;ratioP2
73852;SDS011;62191;51.548;5.688;2023-01-26T00:01:16;17.93;;;8.40;;
73852;SDS011;62191;51.548;5.688;2023-01-26T00:03:47;17.87;;;7.40;;
73852;SDS011;62191;51.548;5.688;2023-01-26T00:06:16;16.13;;;6.50;;
73852;SDS011;62191;51.548;5.688;2023-01-26T00:08:46;16.10;;;8.27;;
73852;SDS011;62191;51.548;5.688;2023-01-26T00:11:18;14.00;;;7.37;;
73852;SDS011;62191;51.548;5.688;2023-01-26T00:13:51;17.90;;;8.98;;
73852;SDS011;62191;51.548;5.688;2023-01-26T00:16:19;25.27;;;8.80;;
73852;SDS011;62191;51.548;5.688;2023-01-26T00:18:47;15.17;;;8.53;;
73852;SDS011;62191;51.548;5.688;2023-01-26T00:21:20;13.13;;;7.77;;
73852;SDS011;62191;51.548;5.688;2023-01-26T00:23:45;17.23;;;7.50;;
73852;SDS011;62191;51.548;5.688;2023-01-26T00:26:14;21.63;;;9.13;;
73852;SDS011;62191;51.548;5.688;2023-01-26T00:28:43;12.53;;;8.03;;
73852;SDS011;62191;51.548;5.688;2023-01-26T00:31:14;16.83;;;9.27;;
73852;SDS011;62191;51.548;5.688;2023-01-26T00:33:43;16.87;;;8.87;;
73852;SDS011;62191;51.548;5.688;2023-01-26T00:36:10;13.73;;;6.70;;
73852;SDS011;62191;51.548;5.688;2023-01-26T00:38:40;11.50;;;8.97;;
73852;SDS011;62191;51.548;5.688;2023-01-26T00:41:07;12.93;;;8.57;;
73852;SDS011;62191;51.548;5.688;2023-01-26T00:43:37;10.77;;;8.10;;
73852;SDS011;62191;51.548;5.688;2023-01-26T00:46:04;19.90;;;8.90;;
73852;SDS011;62191;51.548;5.688;2023-01-26T00:48:31;18.97;;;7.93;;
73852;SDS011;62191;51.548;5.688;2023-01-26T00:50:59;20.23;;;8.60;;
73852;SDS011;62191;51.548;5.688;2023-01-26T00:53:26;12.13;;;7.70;;
73852;SDS011;62191;51.548;5.688;2023-01-26T00:55:53;19.07;;;10.23;;
73852;SDS011;62191;51.548;5.688;2023-01-26T00:58:22;24.47;;;8.13;;
73852;SDS011;62191;51.548;5.688;2023-01-26T01:00:49;14.37;;;8.40;;
73852;SDS011;62191;51.548;5.688;2023-01-26T01:03:18;12.73;;;7.87;;
73852;SDS011;62191;51.548;5.688;2023-01-26T01:05:46;12.93;;;9.40;;
73852;SDS011;62191;51.548;5.688;2023-01-26T01:08:13;14.40;;;7.33;;
73852;SDS011;62191;51.548;5.688;2023-01-26T01:10:40;16.50;;;8.77;;
73852;SDS011;62191;51.548;5.688;2023-01-26T01:13:07;12.90;;;7.27;;
73852;SDS011;62191;51.548;5.688;2023-01-26T01:15:36;14.03;;;8.10;;
73852;SDS011;62191;51.548;5.688;2023-01-26T01:18:04;12.93;;;7.23;;
73852;SDS011;62191;51.548;5.688;2023-01-26T01:20:31;16.00;;;7.67;;
73852;SDS011;62191;51.548;5.688;2023-01-26T01:22:58;9.33;;;5.43;;
73852;SDS011;62191;51.548;5.688;2023-01-26T01:25:26;16.83;;;6.60;;
73852;SDS011;62191;51.548;5.688;2023-01-26T01:27:53;10.93;;;6.83;;
73852;SDS011;62191;51.548;5.688;2023-01-26T01:30:20;16.53;;;6.30;;
73852;SDS011;62191;51.548;5.688;2023-01-26T01:32:48;11.27;;;7.80;;
73852;SDS011;62191;51.548;5.688;2023-01-26T01:35:16;17.33;;;8.27;;
73852;SDS011;62191;51.548;5.688;2023-01-26T01:37:44;13.83;;;7.50;;
73852;SDS011;62191;51.548;5.688;2023-01-26T01:40:11;11.50;;;6.47;;
73852;SDS011;62191;51.548;5.688;2023-01-26T01:42:45;19.93;;;7.23;;
73852;SDS011;62191;51.548;5.688;2023-01-26T01:48:19;18.40;;;8.90;;
73852;SDS011;62191;51.548;5.688;2023-01-26T01:50:40;7.75;;;6.00;;
73852;SDS011;62191;51.548;5.688;2023-01-26T01:53:10;13.77;;;7.60;;
73852;SDS011;62191;51.548;5.688;2023-01-26T01:55:38;15.63;;;8.33;;
73852;SDS011;62191;51.548;5.688;2023-01-26T01:58:06;16.27;;;6.93;;
73852;SDS011;62191;51.548;5.688;2023-01-26T02:00:35;10.73;;;6.83;;
73852;SDS011;62191;51.548;5.688;2023-01-26T02:03:04;12.47;;;7.47;;
73852;SDS011;62191;51.548;5.688;2023-01-26T02:05:51;13.57;;;8.03;;
73852;SDS011;62191;51.548;5.688;2023-01-26T02:08:38;13.70;;;8.27;;
73852;SDS011;62191;51.548;5.688;2023-01-26T02:10:58;14.17;;;8.20;;
73852;SDS011;62191;51.548;5.688;2023-01-26T02:13:28;15.83;;;7.37;;
73852;SDS011;62191;51.548;5.688;2023-01-26T02:15:56;18.33;;;8.60;;
73852;SDS011;62191;51.548;5.688;2023-01-26T02:18:25;14.00;;;7.20;;
73852;SDS011;62191;51.548;5.688;2023-01-26T02:20:54;14.43;;;6.27;;
73852;SDS011;62191;51.548;5.688;2023-01-26T02:23:28;13.00;;;7.30;;
73852;SDS011;62191;51.548;5.688;2023-01-26T02:26:05;10.70;;;6.50;;
73852;SDS011;62191;51.548;5.688;2023-01-26T02:28:37;11.10;;;8.77;;
73852;SDS011;62191;51.548;5.688;2023-01-26T02:31:05;11.77;;;6.83;;
73852;SDS011;62191;51.548;5.688;2023-01-26T02:33:33;16.57;;;8.47;;
73852;SDS011;62191;51.548;5.688;2023-01-26T02:36:00;13.43;;;7.47;;
73852;SDS011;62191;51.548;5.688;2023-01-26T02:38:30;10.50;;;5.77;;
73852;SDS011;62191;51.548;5.688;2023-01-26T02:41:09;14.50;;;8.63;;
73852;SDS011;62191;51.548;5.688;2023-01-26T02:43:37;16.20;;;7.83;;
73852;SDS011;62191;51.548;5.688;2023-01-26T02:46:05;10.83;;;7.07;;
73852;SDS011;62191;51.548;5.688;2023-01-26T02:48:32;14.20;;;8.37;;
73852;SDS011;62191;51.548;5.688;2023-01-26T02:51:17;17.00;;;9.28;;
73852;SDS011;62191;51.548;5.688;2023-01-26T02:53:44;6.37;;;4.83;;
73852;SDS011;62191;51.548;5.688;2023-01-26T02:56:12;10.13;;;7.27;;
73852;SDS011;62191;51.548;5.688;2023-01-26T02:58:39;11.70;;;6.37;;
73852;SDS011;62191;51.548;5.688;2023-01-26T03:01:06;10.33;;;6.37;;
73852;SDS011;62191;51.548;5.688;2023-01-26T03:03:34;13.60;;;7.73;;
73852;SDS011;62191;51.548;5.688;2023-01-26T03:06:10;13.03;;;6.20;;
73852;SDS011;62191;51.548;5.688;2023-01-26T03:08:38;14.60;;;6.37;;
73852;SDS011;62191;51.548;5.688;2023-01-26T03:11:07;13.80;;;7.03;;
73852;SDS011;62191;51.548;5.688;2023-01-26T03:13:34;13.57;;;5.80;;
73852;SDS011;62191;51.548;5.688;2023-01-26T03:16:05;16.03;;;7.33;;
73852;SDS011;62191;51.548;5.688;2023-01-26T03:18:34;11.83;;;5.17;;
73852;SDS011;62191;51.548;5.688;2023-01-26T03:21:21;15.67;;;7.93;;
73852;SDS011;62191;51.548;5.688;2023-01-26T03:24:08;14.17;;;6.70;;
73852;SDS011;62191;51.548;5.688;2023-01-26T03:26:55;8.90;;;5.23;;
73852;SDS011;62191;51.548;5.688;2023-01-26T03:29:42;10.57;;;6.37;;
73852;SDS011;62191;51.548;5.688;2023-01-26T03:32:09;10.63;;;5.90;;
73852;SDS011;62191;51.548;5.688;2023-01-26T03:34:36;7.27;;;5.50;;
73852;SDS011;62191;51.548;5.688;2023-01-26T03:37:05;12.00;;;8.20;;
73852;SDS011;62191;51.548;5.688;2023-01-26T03:39:32;11.57;;;6.20;;
73852;SDS011;62191;51.548;5.688;2023-01-26T03:45:01;7.57;;;5.87;;
73852;SDS011;62191;51.548;5.688;2023-01-26T03:47:47;15.07;;;9.40;;
73852;SDS011;62191;51.548;5.688;2023-01-26T03:53:17;9.07;;;6.73;;
73852;SDS011;62191;51.548;5.688;2023-01-26T03:56:03;15.47;;;5.63;;
73852;SDS011;62191;51.548;5.688;2023-01-26T03:58:41;10.57;;;6.10;;
73852;SDS011;62191;51.548;5.688;2023-01-26T04:01:12;9.07;;;5.90;;
73852;SDS011;62191;51.548;5.688;2023-01-26T04:03:46;11.70;;;5.30;;
73852;SDS011;62191;51.548;5.688;2023-01-26T04:06:31;12.47;;;6.93;;
73852;SDS011;62191;51.548;5.688;2023-01-26T04:09:17;11.60;;;5.63;;
73852;SDS011;62191;51.548;5.688;2023-01-26T04:11:44;8.90;;;4.83;;
73852;SDS011;62191;51.548;5.688;2023-01-26T04:14:12;9.17;;;5.83;;
73852;SDS011;62191;51.548;5.688;2023-01-26T04:16:58;11.80;;;9.53;;
73852;SDS011;62191;51.548;5.688;2023-01-26T04:19:44;8.97;;;5.13;;
73852;SDS011;62191;51.548;5.688;2023-01-26T04:22:29;12.17;;;7.00;;
73852;SDS011;62191;51.548;5.688;2023-01-26T04:24:58;8.17;;;5.87;;
73852;SDS011;62191;51.548;5.688;2023-01-26T04:27:26;9.23;;;5.83;;
73852;SDS011;62191;51.548;5.688;2023-01-26T04:29:53;13.07;;;6.23;;
73852;SDS011;62191;51.548;5.688;2023-01-26T04:32:20;5.83;;;4.60;;
73852;SDS011;62191;51.548;5.688;2023-01-26T04:34:47;8.00;;;5.30;;
73852;SDS011;62191;51.548;5.688;2023-01-26T04:37:15;11.73;;;6.87;;
73852;SDS011;62191;51.548;5.688;2023-01-26T04:39:42;8.00;;;7.10;;
73852;SDS011;62191;51.548;5.688;2023-01-26T04:42:09;9.37;;;5.27;;
73852;SDS011;62191;51.548;5.688;2023-01-26T04:44:36;11.97;;;6.37;;
73852;SDS011;62191;51.548;5.688;2023-01-26T04:47:04;11.10;;;5.80;;
73852;SDS011;62191;51.548;5.688;2023-01-26T04:49:31;6.53;;;3.70;;
73852;SDS011;62191;51.548;5.688;2023-01-26T04:51:58;11.57;;;7.37;;
73852;SDS011;62191;51.548;5.688;2023-01-26T04:54:26;5.83;;;4.67;;
73852;SDS011;62191;51.548;5.688;2023-01-26T04:56:53;9.60;;;5.07;;
73852;SDS011;62191;51.548;5.688;2023-01-26T04:59:20;7.07;;;5.17;;
73852;SDS011;62191;51.548;5.688;2023-01-26T05:01:48;8.20;;;4.73;;
73852;SDS011;62191;51.548;5.688;2023-01-26T05:04:15;10.43;;;5.80;;
73852;SDS011;62191;51.548;5.688;2023-01-26T05:06:42;8.33;;;4.43;;
73852;SDS011;62191;51.548;5.688;2023-01-26T05:09:10;9.93;;;4.13;;
73852;SDS011;62191;51.548;5.688;2023-01-26T05:11:37;9.93;;;6.20;;
73852;SDS011;62191;51.548;5.688;2023-01-26T05:14:04;9.90;;;5.43;;
73852;SDS011;62191;51.548;5.688;2023-01-26T05:16:32;5.83;;;3.57;;
73852;SDS011;62191;51.548;5.688;2023-01-26T05:18:59;8.33;;;3.63;;
73852;SDS011;62191;51.548;5.688;2023-01-26T05:21:26;5.57;;;3.90;;
73852;SDS011;62191;51.548;5.688;2023-01-26T05:23:53;8.60;;;4.57;;
73852;SDS011;62191;51.548;5.688;2023-01-26T05:26:21;7.40;;;4.70;;
73852;SDS011;62191;51.548;5.688;2023-01-26T05:28:48;7.50;;;5.17;;
73852;SDS011;62191;51.548;5.688;2023-01-26T05:31:15;8.33;;;4.67;;
73852;SDS011;62191;51.548;5.688;2023-01-26T05:33:42;8.47;;;5.10;;
73852;SDS011;62191;51.548;5.688;2023-01-26T05:36:10;7.33;;;4.70;;
73852;SDS011;62191;51.548;5.688;2023-01-26T05:38:37;6.00;;;4.70;;
73852;SDS011;62191;51.548;5.688;2023-01-26T05:41:05;4.50;;;3.83;;
73852;SDS011;62191;51.548;5.688;2023-01-26T05:43:33;3.97;;;3.37;;
73852;SDS011;62191;51.548;5.688;2023-01-26T05:46:00;10.13;;;3.97;;
73852;SDS011;62191;51.548;5.688;2023-01-26T05:48:27;5.93;;;5.37;;
73852;SDS011;62191;51.548;5.688;2023-01-26T05:50:55;9.73;;;6.40;;
73852;SDS011;62191;51.548;5.688;2023-01-26T05:53:23;6.57;;;4.73;;
73852;SDS011;62191;51.548;5.688;2023-01-26T05:55:50;6.83;;;3.93;;
73852;SDS011;62191;51.548;5.688;2023-01-26T05:58:17;6.53;;;3.90;;
73852;SDS011;62191;51.548;5.688;2023-01-26T06:00:45;6.43;;;4.23;;
73852;SDS011;62191;51.548;5.688;2023-01-26T06:03:12;6.90;;;4.10;;
73852;SDS011;62191;51.548;5.688;2023-01-26T06:05:39;7.97;;;3.37;;
73852;SDS011;62191;51.548;5.688;2023-01-26T06:08:07;6.50;;;4.83;;
73852;SDS011;62191;51.548;5.688;2023-01-26T06:10:34;6.40;;;4.33;;
73852;SDS011;62191;51.548;5.688;2023-01-26T06:13:01;7.87;;;4.53;;
73852;SDS011;62191;51.548;5.688;2023-01-26T06:15:28;3.70;;;2.83;;
73852;SDS011;62191;51.548;5.688;2023-01-26T06:17:56;5.60;;;3.87;;
73852;SDS011;62191;51.548;5.688;2023-01-26T06:20:25;8.40;;;4.57;;
73852;SDS011;62191;51.548;5.688;2023-01-26T06:22:52;8.10;;;5.00;;
73852;SDS011;62191;51.548;5.688;2023-01-26T06:25:19;7.43;;;4.20;;
73852;SDS011;62191;51.548;5.688;2023-01-26T06:27:46;6.80;;;3.87;;
73852;SDS011;62191;51.548;5.688;2023-01-26T06:30:14;6.20;;;3.97;;
73852;SDS011;62191;51.548;5.688;2023-01-26T06:32:41;7.83;;;3.77;;
73852;SDS011;62191;51.548;5.688;2023-01-26T06:35:08;11.33;;;4.77;;
73852;SDS011;62191;51.548;5.688;2023-01-26T06:37:36;4.17;;;3.03;;
73852;SDS011;62191;51.548;5.688;2023-01-26T06:40:03;7.03;;;4.17;;
73852;SDS011;62191;51.548;5.688;2023-01-26T06:42:31;4.77;;;2.90;;
73852;SDS011;62191;51.548;5.688;2023-01-26T06:44:58;5.47;;;4.87;;
73852;SDS011;62191;51.548;5.688;2023-01-26T06:47:25;8.23;;;4.10;;
73852;SDS011;62191;51.548;5.688;2023-01-26T06:49:53;4.10;;;3.43;;
73852;SDS011;62191;51.548;5.688;2023-01-26T06:52:21;5.50;;;3.10;;
73852;SDS011;62191;51.548;5.688;2023-01-26T06:54:51;7.43;;;4.47;;
73852;SDS011;62191;51.548;5.688;2023-01-26T06:57:19;8.33;;;4.63;;
73852;SDS011;62191;51.548;5.688;2023-01-26T06:59:46;3.07;;;2.73;;
73852;SDS011;62191;51.548;5.688;2023-01-26T07:02:17;5.47;;;3.60;;
73852;SDS011;62191;51.548;5.688;2023-01-26T07:04:46;6.43;;;3.73;;
73852;SDS011;62191;51.548;5.688;2023-01-26T07:07:14;6.67;;;3.93;;
73852;SDS011;62191;51.548;5.688;2023-01-26T07:09:41;6.53;;;3.03;;
73852;SDS011;62191;51.548;5.688;2023-01-26T07:12:08;4.13;;;3.50;;
73852;SDS011;62191;51.548;5.688;2023-01-26T07:14:36;7.57;;;3.53;;
73852;SDS011;62191;51.548;5.688;2023-01-26T07:17:03;5.70;;;4.20;;
73852;SDS011;62191;51.548;5.688;2023-01-26T07:19:30;5.97;;;3.60;;
73852;SDS011;62191;51.548;5.688;2023-01-26T07:21:58;7.30;;;4.00;;
73852;SDS011;62191;51.548;5.688;2023-01-26T07:24:26;5.27;;;3.43;;
73852;SDS011;62191;51.548;5.688;2023-01-26T07:26:54;7.50;;;3.00;;
73852;SDS011;62191;51.548;5.688;2023-01-26T07:29:21;5.77;;;2.97;;
73852;SDS011;62191;51.548;5.688;2023-01-26T07:31:48;6.20;;;2.87;;
73852;SDS011;62191;51.548;5.688;2023-01-26T07:34:16;4.23;;;3.77;;
73852;SDS011;62191;51.548;5.688;2023-01-26T07:36:43;6.73;;;3.57;;
73852;SDS011;62191;51.548;5.688;2023-01-26T07:39:10;7.03;;;3.90;;
73852;SDS011;62191;51.548;5.688;2023-01-26T07:41:38;7.73;;;3.93;;
73852;SDS011;62191;51.548;5.688;2023-01-26T07:44:08;4.77;;;2.80;;
73852;SDS011;62191;51.548;5.688;2023-01-26T07:46:37;14.13;;;4.63;;
73852;SDS011;62191;51.548;5.688;2023-01-26T07:49:05;6.93;;;3.77;;
73852;SDS011;62191;51.548;5.688;2023-01-26T07:51:33;8.23;;;4.00;;
73852;SDS011;62191;51.548;5.688;2023-01-26T07:54:00;6.37;;;3.73;;
73852;SDS011;62191;51.548;5.688;2023-01-26T07:56:27;6.30;;;3.00;;
73852;SDS011;62191;51.548;5.688;2023-01-26T07:58:54;9.47;;;3.87;;
73852;SDS011;62191;51.548;5.688;2023-01-26T08:01:22;6.97;;;4.23;;
73852;SDS011;62191;51.548;5.688;2023-01-26T08:03:50;8.33;;;3.50;;
73852;SDS011;62191;51.548;5.688;2023-01-26T08:06:19;6.90;;;3.93;;
73852;SDS011;62191;51.548;5.688;2023-01-26T08:08:47;8.50;;;4.60;;
73852;SDS011;62191;51.548;5.688;2023-01-26T08:11:19;6.37;;;3.83;;
73852;SDS011;62191;51.548;5.688;2023-01-26T08:13:48;10.37;;;3.93;;
73852;SDS011;62191;51.548;5.688;2023-01-26T08:16:15;10.90;;;5.20;;
73852;SDS011;62191;51.548;5.688;2023-01-26T08:18:44;6.37;;;3.53;;
73852;SDS011;62191;51.548;5.688;2023-01-26T08:21:12;5.50;;;3.57;;
73852;SDS011;62191;51.548;5.688;2023-01-26T08:23:40;6.13;;;3.93;;
73852;SDS011;62191;51.548;5.688;2023-01-26T08:26:09;13.17;;;4.30;;
73852;SDS011;62191;51.548;5.688;2023-01-26T08:28:38;5.80;;;3.80;;
73852;SDS011;62191;51.548;5.688;2023-01-26T08:31:09;9.87;;;3.93;;
73852;SDS011;62191;51.548;5.688;2023-01-26T08:33:39;8.63;;;3.87;;
73852;SDS011;62191;51.548;5.688;2023-01-26T08:36:09;6.63;;;3.97;;
73852;SDS011;62191;51.548;5.688;2023-01-26T08:38:37;5.60;;;4.43;;
73852;SDS011;62191;51.548;5.688;2023-01-26T08:41:04;6.27;;;3.17;;
73852;SDS011;62191;51.548;5.688;2023-01-26T08:43:32;8.03;;;4.70;;
73852;SDS011;62191;51.548;5.688;2023-01-26T08:46:00;5.60;;;3.53;;
73852;SDS011;62191;51.548;5.688;2023-01-26T08:48:27;4.93;;;3.07;;
73852;SDS011;62191;51.548;5.688;2023-01-26T08:51:01;5.93;;;3.10;;
73852;SDS011;62191;51.548;5.688;2023-01-26T08:53:25;6.53;;;5.00;;
73852;SDS011;62191;51.548;5.688;2023-01-26T08:55:55;9.10;;;3.97;;
73852;SDS011;62191;51.548;5.688;2023-01-26T08:58:22;11.93;;;4.40;;
73852;SDS011;62191;51.548;5.688;2023-01-26T09:00:49;9.30;;;5.17;;
73852;SDS011;62191;51.548;5.688;2023-01-26T09:03:17;9.00;;;5.57;;
73852;SDS011;62191;51.548;5.688;2023-01-26T09:05:44;15.00;;;5.23;;
73852;SDS011;62191;51.548;5.688;2023-01-26T09:08:11;6.33;;;3.83;;
73852;SDS011;62191;51.548;5.688;2023-01-26T09:10:39;4.67;;;4.17;;
73852;SDS011;62191;51.548;5.688;2023-01-26T09:13:08;11.83;;;5.63;;
73852;SDS011;62191;51.548;5.688;2023-01-26T09:15:36;5.10;;;3.97;;
73852;SDS011;62191;51.548;5.688;2023-01-26T09:18:03;8.70;;;4.30;;
73852;SDS011;62191;51.548;5.688;2023-01-26T09:20:31;7.63;;;4.27;;
73852;SDS011;62191;51.548;5.688;2023-01-26T09:22:58;10.63;;;5.50;;
73852;SDS011;62191;51.548;5.688;2023-01-26T09:25:25;5.17;;;4.20;;
73852;SDS011;62191;51.548;5.688;2023-01-26T09:27:52;7.73;;;4.50;;
73852;SDS011;62191;51.548;5.688;2023-01-26T09:30:20;6.03;;;4.57;;
73852;SDS011;62191;51.548;5.688;2023-01-26T09:32:49;13.57;;;6.87;;
73852;SDS011;62191;51.548;5.688;2023-01-26T09:35:16;7.53;;;3.63;;
73852;SDS011;62191;51.548;5.688;2023-01-26T09:37:44;9.80;;;4.10;;
73852;SDS011;62191;51.548;5.688;2023-01-26T09:40:14;6.73;;;4.60;;
73852;SDS011;62191;51.548;5.688;2023-01-26T09:42:44;7.20;;;3.50;;
73852;SDS011;62191;51.548;5.688;2023-01-26T09:45:26;7.50;;;3.60;;
73852;SDS011;62191;51.548;5.688;2023-01-26T09:48:24;6.60;;;3.90;;
73852;SDS011;62191;51.548;5.688;2023-01-26T09:53:29;5.77;;;3.10;;
73852;SDS011;62191;51.548;5.688;2023-01-26T09:56:00;12.30;;;5.57;;
73852;SDS011;62191;51.548;5.688;2023-01-26T09:58:33;8.00;;;3.90;;
73852;SDS011;62191;51.548;5.688;2023-01-26T10:01:01;12.10;;;4.20;;
73852;SDS011;62191;51.548;5.688;2023-01-26T10:04:13;9.27;;;3.53;;
73852;SDS011;62191;51.548;5.688;2023-01-26T10:06:21;6.27;;;3.03;;
73852;SDS011;62191;51.548;5.688;2023-01-26T10:08:54;8.30;;;4.77;;
73852;SDS011;62191;51.548;5.688;2023-01-26T10:11:25;10.47;;;4.83;;
73852;SDS011;62191;51.548;5.688;2023-01-26T10:13:59;8.13;;;5.13;;
73852;SDS011;62191;51.548;5.688;2023-01-26T10:16:24;7.57;;;3.73;;
73852;SDS011;62191;51.548;5.688;2023-01-26T10:18:53;4.73;;;3.07;;
73852;SDS011;62191;51.548;5.688;2023-01-26T10:21:32;5.70;;;3.13;;
73852;SDS011;62191;51.548;5.688;2023-01-26T10:24:01;8.80;;;3.83;;
73852;SDS011;62191;51.548;5.688;2023-01-26T10:26:35;9.30;;;3.77;;
73852;SDS011;62191;51.548;5.688;2023-01-26T10:28:59;4.47;;;2.73;;
73852;SDS011;62191;51.548;5.688;2023-01-26T10:31:28;4.33;;;3.23;;
73852;SDS011;62191;51.548;5.688;2023-01-26T10:33:57;5.50;;;2.90;;
73852;SDS011;62191;51.548;5.688;2023-01-26T10:36:33;4.17;;;3.03;;
73852;SDS011;62191;51.548;5.688;2023-01-26T10:39:04;5.93;;;3.27;;
73852;SDS011;62191;51.548;5.688;2023-01-26T10:41:33;10.57;;;6.37;;
73852;SDS011;62191;51.548;5.688;2023-01-26T10:47:00;6.33;;;3.60;;
73852;SDS011;62191;51.548;5.688;2023-01-26T10:49:34;9.80;;;3.73;;
73852;SDS011;62191;51.548;5.688;2023-01-26T10:52:06;7.97;;;5.10;;
73852;SDS011;62191;51.548;5.688;2023-01-26T10:54:35;7.77;;;4.27;;
73852;SDS011;62191;51.548;5.688;2023-01-26T10:57:04;7.30;;;4.93;;
73852;SDS011;62191;51.548;5.688;2023-01-26T11:00:02;3.97;;;3.53;;
73852;SDS011;62191;51.548;5.688;2023-01-26T11:02:26;11.07;;;4.80;;
73852;SDS011;62191;51.548;5.688;2023-01-26T11:05:12;6.77;;;5.03;;
73852;SDS011;62191;51.548;5.688;2023-01-26T11:07:35;9.87;;;4.27;;
73852;SDS011;62191;51.548;5.688;2023-01-26T11:13:16;9.63;;;4.03;;
73852;SDS011;62191;51.548;5.688;2023-01-26T11:15:37;9.23;;;4.67;;
73852;SDS011;62191;51.548;5.688;2023-01-26T11:18:10;16.50;;;4.17;;
73852;SDS011;62191;51.548;5.688;2023-01-26T11:20:55;9.37;;;4.43;;
73852;SDS011;62191;51.548;5.688;2023-01-26T11:23:26;7.57;;;3.60;;
73852;SDS011;62191;51.548;5.688;2023-01-26T11:31:38;14.57;;;4.87;;
73852;SDS011;62191;51.548;5.688;2023-01-26T11:34:58;7.17;;;5.13;;
73852;SDS011;62191;51.548;5.688;2023-01-26T11:36:47;8.87;;;3.80;;
73852;SDS011;62191;51.548;5.688;2023-01-26T11:39:20;6.37;;;3.97;;
73852;SDS011;62191;51.548;5.688;2023-01-26T11:42:06;7.90;;;3.93;;
73852;SDS011;62191;51.548;5.688;2023-01-26T11:44:40;6.47;;;3.27;;
73852;SDS011;62191;51.548;5.688;2023-01-26T11:47:25;10.30;;;3.40;;
73852;SDS011;62191;51.548;5.688;2023-01-26T11:53:17;8.10;;;3.23;;
73852;SDS011;62191;51.548;5.688;2023-01-26T11:58:24;3.37;;;2.60;;
73852;SDS011;62191;51.548;5.688;2023-01-26T12:01:00;10.27;;;5.57;;
73852;SDS011;62191;51.548;5.688;2023-01-26T12:06:19;9.57;;;5.13;;
73852;SDS011;62191;51.548;5.688;2023-01-26T12:08:49;6.67;;;3.57;;
73852;SDS011;62191;51.548;5.688;2023-01-26T12:22:17;6.83;;;2.30;;
73852;SDS011;62191;51.548;5.688;2023-01-26T12:24:46;18.80;;;4.80;;
73852;SDS011;62191;51.548;5.688;2023-01-26T12:27:16;9.80;;;4.73;;
73852;SDS011;62191;51.548;5.688;2023-01-26T12:29:47;3.83;;;2.97;;
73852;SDS011;62191;51.548;5.688;2023-01-26T12:32:16;8.03;;;3.80;;
73852;SDS011;62191;51.548;5.688;2023-01-26T12:34:44;4.53;;;3.20;;
73852;SDS011;62191;51.548;5.688;2023-01-26T12:45:29;9.40;;;5.17;;
73852;SDS011;62191;51.548;5.688;2023-01-26T12:48:03;8.10;;;2.73;;
73852;SDS011;62191;51.548;5.688;2023-01-26T12:50:33;7.87;;;3.60;;
73852;SDS011;62191;51.548;5.688;2023-01-26T12:53:18;9.90;;;4.00;;
73852;SDS011;62191;51.548;5.688;2023-01-26T12:55:53;8.93;;;2.53;;
73852;SDS011;62191;51.548;5.688;2023-01-26T12:58:33;9.17;;;4.40;;
73852;SDS011;62191;51.548;5.688;2023-01-26T13:01:04;13.03;;;3.73;;
73852;SDS011;62191;51.548;5.688;2023-01-26T13:03:34;14.70;;;6.40;;
73852;SDS011;62191;51.548;5.688;2023-01-26T13:08:39;5.40;;;4.23;;
73852;SDS011;62191;51.548;5.688;2023-01-26T13:11:08;17.07;;;6.40;;
73852;SDS011;62191;51.548;5.688;2023-01-26T13:13:55;9.23;;;3.87;;
73852;SDS011;62191;51.548;5.688;2023-01-26T13:18:53;9.10;;;4.53;;
73852;SDS011;62191;51.548;5.688;2023-01-26T13:21:30;7.07;;;4.70;;
73852;SDS011;62191;51.548;5.688;2023-01-26T13:24:01;9.83;;;2.80;;
73852;SDS011;62191;51.548;5.688;2023-01-26T13:31:58;10.50;;;3.90;;
73852;SDS011;62191;51.548;5.688;2023-01-26T13:34:38;6.47;;;2.30;;
73852;SDS011;62191;51.548;5.688;2023-01-26T13:37:14;5.00;;;3.40;;
73852;SDS011;62191;51.548;5.688;2023-01-26T13:39:44;6.95;;;3.60;;
73852;SDS011;62191;51.548;5.688;2023-01-26T13:42:18;5.50;;;2.53;;
73852;SDS011;62191;51.548;5.688;2023-01-26T13:45:02;4.10;;;1.67;;
73852;SDS011;62191;51.548;5.688;2023-01-26T13:47:33;15.37;;;2.77;;
73852;SDS011;62191;51.548;5.688;2023-01-26T13:52:55;3.77;;;2.50;;
73852;SDS011;62191;51.548;5.688;2023-01-26T13:55:26;4.03;;;1.57;;
73852;SDS011;62191;51.548;5.688;2023-01-26T14:00:37;6.77;;;1.70;;
73852;SDS011;62191;51.548;5.688;2023-01-26T14:03:04;3.40;;;1.50;;
73852;SDS011;62191;51.548;5.688;2023-01-26T14:05:33;6.90;;;2.17;;
73852;SDS011;62191;51.548;5.688;2023-01-26T14:08:01;15.47;;;1.43;;
73852;SDS011;62191;51.548;5.688;2023-01-26T14:10:28;2.00;;;1.33;;
73852;SDS011;62191;51.548;5.688;2023-01-26T14:12:56;5.53;;;1.50;;
73852;SDS011;62191;51.548;5.688;2023-01-26T14:15:26;2.50;;;1.47;;
73852;SDS011;62191;51.548;5.688;2023-01-26T14:17:55;4.23;;;2.43;;
73852;SDS011;62191;51.548;5.688;2023-01-26T14:20:31;8.60;;;1.00;;
73852;SDS011;62191;51.548;5.688;2023-01-26T14:23:09;4.57;;;1.03;;
73852;SDS011;62191;51.548;5.688;2023-01-26T14:25:37;3.47;;;2.60;;
73852;SDS011;62191;51.548;5.688;2023-01-26T14:28:09;2.83;;;1.23;;
73852;SDS011;62191;51.548;5.688;2023-01-26T14:30:41;1.47;;;0.83;;
73852;SDS011;62191;51.548;5.688;2023-01-26T14:33:12;1.97;;;1.20;;
73852;SDS011;62191;51.548;5.688;2023-01-26T14:35:41;3.70;;;3.13;;
73852;SDS011;62191;51.548;5.688;2023-01-26T14:40:52;2.13;;;0.77;;
73852;SDS011;62191;51.548;5.688;2023-01-26T14:43:17;1.70;;;0.90;;
73852;SDS011;62191;51.548;5.688;2023-01-26T14:45:46;1.53;;;0.83;;
73852;SDS011;62191;51.548;5.688;2023-01-26T14:48:19;1.25;;;0.70;;
73852;SDS011;62191;51.548;5.688;2023-01-26T14:50:49;2.10;;;0.63;;
73852;SDS011;62191;51.548;5.688;2023-01-26T14:53:18;4.77;;;1.33;;
73852;SDS011;62191;51.548;5.688;2023-01-26T14:55:47;4.27;;;0.80;;
73852;SDS011;62191;51.548;5.688;2023-01-26T14:58:23;7.00;;;1.07;;
73852;SDS011;62191;51.548;5.688;2023-01-26T15:00:53;7.00;;;1.37;;
73852;SDS011;62191;51.548;5.688;2023-01-26T15:06:03;15.57;;;2.00;;
73852;SDS011;62191;51.548;5.688;2023-01-26T15:08:50;4.63;;;0.93;;
73852;SDS011;62191;51.548;5.688;2023-01-26T15:11:32;12.83;;;1.17;;
73852;SDS011;62191;51.548;5.688;2023-01-26T15:14:29;1.77;;;0.80;;
73852;SDS011;62191;51.548;5.688;2023-01-26T15:16:51;1.70;;;0.80;;
73852;SDS011;62191;51.548;5.688;2023-01-26T15:19:22;6.57;;;1.90;;
73852;SDS011;62191;51.548;5.688;2023-01-26T15:21:50;4.43;;;0.80;;
73852;SDS011;62191;51.548;5.688;2023-01-26T15:24:18;1.33;;;0.53;;
73852;SDS011;62191;51.548;5.688;2023-01-26T15:26:45;0.70;;;0.60;;
73852;SDS011;62191;51.548;5.688;2023-01-26T15:29:17;1.57;;;0.80;;
73852;SDS011;62191;51.548;5.688;2023-01-26T15:31:49;10.87;;;3.83;;
73852;SDS011;62191;51.548;5.688;2023-01-26T15:34:29;1.90;;;0.57;;
73852;SDS011;62191;51.548;5.688;2023-01-26T15:36:58;1.17;;;1.10;;
73852;SDS011;62191;51.548;5.688;2023-01-26T15:39:26;1.97;;;1.20;;
73852;SDS011;62191;51.548;5.688;2023-01-26T15:42:06;1.93;;;1.40;;
73852;SDS011;62191;51.548;5.688;2023-01-26T15:44:27;2.40;;;1.20;;
73852;SDS011;62191;51.548;5.688;2023-01-26T15:46:54;1.57;;;1.07;;
73852;SDS011;62191;51.548;5.688;2023-01-26T15:49:23;0.73;;;0.53;;
73852;SDS011;62191;51.548;5.688;2023-01-26T15:51:50;2.20;;;0.60;;
73852;SDS011;62191;51.548;5.688;2023-01-26T15:54:17;2.30;;;1.10;;
73852;SDS011;62191;51.548;5.688;2023-01-26T15:56:45;1.27;;;0.53;;
73852;SDS011;62191;51.548;5.688;2023-01-26T15:59:12;1.17;;;0.80;;
73852;SDS011;62191;51.548;5.688;2023-01-26T16:01:39;1.47;;;1.33;;
73852;SDS011;62191;51.548;5.688;2023-01-26T16:04:10;0.70;;;0.70;;
73852;SDS011;62191;51.548;5.688;2023-01-26T16:06:37;2.00;;;0.70;;
73852;SDS011;62191;51.548;5.688;2023-01-26T16:09:04;0.80;;;0.80;;
73852;SDS011;62191;51.548;5.688;2023-01-26T16:11:33;2.03;;;0.83;;
73852;SDS011;62191;51.548;5.688;2023-01-26T16:14:02;0.63;;;0.63;;